Time;durP1;ratioP1;P1;durP2;ratioP2;P2;SDS_P1;SDS_P2;PMS_P1;PMS_P2;Temp;Humidity;BMP_temperature;BMP_pressure;BME280_temperature;BME280_humidity;BME280_pressure;Samples;Min_cycle;Max_cycle;Signal;HPM_P1;HPM_P2
2023/10/12 00:01:58;;;;;;;;;;;16.10;64.50;;;;;;5024887;27;114492;-82
2023/10/12 00:04:35;;;;;;;;;;;16.10;64.50;;;;;;5026061;28;114370;-81
2023/10/12 00:07:15;;;;;;;;;;;16.10;64.50;;;;;;5027391;28;114054;-82
2023/10/12 00:10:40;;;;;;;;;;;16.00;64.60;;;;;;5025910;28;115477;-83
2023/10/12 00:12:30;;;;;;;;;;;16.10;64.70;;;;;;5028759;27;115805;-81
2023/10/12 00:14:58;;;;;;;;;;;16.00;64.60;;;;;;5027261;27;114589;-82
2023/10/12 00:17:29;;;;;;;;;;;16.00;64.50;;;;;;5026776;27;114278;-81
2023/10/12 00:19:58;;;;;;;;;;;16.00;64.60;;;;;;5025081;27;136863;-81
2023/10/12 00:22:25;;;;;;;;;;;16.00;64.80;;;;;;5025002;28;114586;-82
2023/10/12 00:24:52;;;;;;;;;;;16.00;64.60;;;;;;5027188;28;114897;-81
2023/10/12 00:27:20;;;;;;;;;;;16.00;64.60;;;;;;5027176;27;114366;-81
2023/10/12 00:29:49;;;;;;;;;;;16.00;64.80;;;;;;5025981;28;114875;-82
2023/10/12 00:32:16;;;;;;;;;;;15.90;64.80;;;;;;5026131;27;114579;-81
2023/10/12 00:34:46;;;;;;;;;;;15.90;64.80;;;;;;5026741;27;114020;-82
2023/10/12 00:37:14;;;;;;;;;;;15.90;64.80;;;;;;5026687;27;114336;-82
2023/10/12 00:42:24;;;;;;;;;;;15.90;64.80;;;;;;5026000;27;115049;-82
2023/10/12 00:44:54;;;;;;;;;;;15.80;64.90;;;;;;5027008;28;114537;-82
2023/10/12 00:47:43;;;;;;;;;;;15.90;64.90;;;;;;5027090;27;114351;-82
2023/10/12 00:50:11;;;;;;;;;;;15.90;65.00;;;;;;5025912;28;115488;-82
2023/10/12 00:53:14;;;;;;;;;;;15.80;64.90;;;;;;5026260;27;115046;-82
2023/10/12 00:55:41;;;;;;;;;;;15.80;64.90;;;;;;5026703;27;114313;-83
2023/10/12 00:58:08;;;;;;;;;;;15.80;65.10;;;;;;5025625;28;114367;-82
2023/10/12 01:00:51;;;;;;;;;;;15.80;65.00;;;;;;5024968;27;114896;-82
2023/10/12 01:03:28;;;;;;;;;;;15.80;65.10;;;;;;5025649;28;114705;-82
2023/10/12 01:06:15;;;;;;;;;;;15.80;65.10;;;;;;5026559;28;114225;-81
2023/10/12 01:08:43;;;;;;;;;;;15.80;65.20;;;;;;5025264;28;114431;-81
2023/10/12 01:11:21;;;;;;;;;;;15.80;65.10;;;;;;5024064;28;117735;-82
2023/10/12 01:13:49;;;;;;;;;;;15.80;65.10;;;;;;5028040;28;114575;-81
2023/10/12 01:16:23;;;;;;;;;;;15.80;65.10;;;;;;5030289;28;114356;-81
2023/10/12 01:19:05;;;;;;;;;;;15.80;65.00;;;;;;5030145;27;115766;-81
2023/10/12 01:21:36;;;;;;;;;;;15.80;64.90;;;;;;5029643;28;115334;-82
2023/10/12 01:24:05;;;;;;;;;;;15.90;64.90;;;;;;5028229;28;114589;-81
2023/10/12 01:26:32;;;;;;;;;;;15.80;64.90;;;;;;5029483;27;114097;-82
2023/10/12 01:29:00;;;;;;;;;;;15.90;64.80;;;;;;5030243;27;114303;-82
2023/10/12 01:31:29;;;;;;;;;;;15.90;64.80;;;;;;5027518;28;115069;-84
2023/10/12 01:33:57;;;;;;;;;;;15.90;64.80;;;;;;5027557;28;114839;-83
2023/10/12 01:36:30;;;;;;;;;;;15.80;64.80;;;;;;5028594;28;114254;-82
2023/10/12 01:39:12;;;;;;;;;;;15.90;64.70;;;;;;5029361;27;114367;-83
2023/10/12 01:41:42;;;;;;;;;;;15.90;64.70;;;;;;5028600;28;114983;-83
2023/10/12 01:44:12;;;;;;;;;;;15.80;64.70;;;;;;5029014;27;114580;-83
2023/10/12 01:46:40;;;;;;;;;;;15.80;64.70;;;;;;5028309;28;114650;-82
2023/10/12 01:49:08;;;;;;;;;;;15.80;65.10;;;;;;5011822;28;114470;-83
2023/10/12 01:51:45;;;;;;;;;;;15.80;64.80;;;;;;5026686;28;115305;-82
2023/10/12 01:54:21;;;;;;;;;;;15.80;64.80;;;;;;5028035;28;115591;-81
2023/10/12 01:56:51;;;;;;;;;;;15.80;64.90;;;;;;5028024;28;114311;-82
2023/10/12 01:59:21;;;;;;;;;;;15.80;64.80;;;;;;5028093;28;114403;-82
2023/10/12 02:01:59;;;;;;;;;;;15.80;64.80;;;;;;5026908;28;114820;-82
2023/10/12 02:04:26;;;;;;;;;;;15.70;64.90;;;;;;5027054;28;114791;-83
2023/10/12 02:06:53;;;;;;;;;;;15.70;64.70;;;;;;5029157;28;114197;-82
2023/10/12 02:09:22;;;;;;;;;;;15.70;64.70;;;;;;5028262;28;114256;-83
2023/10/12 02:11:57;;;;;;;;;;;15.80;64.70;;;;;;5010322;28;115041;-83
2023/10/12 02:14:33;;;;;;;;;;;15.70;64.70;;;;;;5028120;28;114863;-82
2023/10/12 02:17:04;;;;;;;;;;;15.70;64.70;;;;;;5011232;28;114442;-82
2023/10/12 02:19:42;;;;;;;;;;;15.70;64.80;;;;;;5027785;28;114155;-82
2023/10/12 02:22:24;;;;;;;;;;;15.60;64.70;;;;;;5027846;28;114847;-82
2023/10/12 02:25:03;;;;;;;;;;;15.60;64.80;;;;;;5027145;27;114555;-83
2023/10/12 02:27:31;;;;;;;;;;;15.60;64.90;;;;;;5028815;28;114078;-82
2023/10/12 02:29:59;;;;;;;;;;;15.60;65.00;;;;;;5028799;28;114100;-83
2023/10/12 02:32:26;;;;;;;;;;;15.50;65.00;;;;;;5026645;28;118050;-83
2023/10/12 02:34:57;;;;;;;;;;;15.50;64.90;;;;;;4993366;28;117556;-81
2023/10/12 02:37:25;;;;;;;;;;;15.60;65.10;;;;;;5027571;28;114198;-83
2023/10/12 02:39:54;;;;;;;;;;;15.60;65.00;;;;;;5027480;28;114207;-80
2023/10/12 02:42:22;;;;;;;;;;;15.50;65.00;;;;;;5027170;28;114821;-81
2023/10/12 02:47:23;;;;;;;;;;;15.50;65.00;;;;;;5028154;28;114400;-81
2023/10/12 02:50:00;;;;;;;;;;;15.60;65.30;;;;;;5010891;28;114447;-81
2023/10/12 02:52:30;;;;;;;;;;;15.50;65.30;;;;;;5027477;28;115425;-82
2023/10/12 02:55:06;;;;;;;;;;;15.50;65.20;;;;;;5027816;28;114984;-81
2023/10/12 02:57:34;;;;;;;;;;;15.50;65.20;;;;;;5028895;28;114504;-82
2023/10/12 03:00:14;;;;;;;;;;;15.40;65.20;;;;;;5028779;27;114352;-81
2023/10/12 03:02:44;;;;;;;;;;;15.50;65.30;;;;;;5025776;28;115063;-80
2023/10/12 03:05:17;;;;;;;;;;;15.50;65.40;;;;;;5027221;28;114629;-82
2023/10/12 03:07:45;;;;;;;;;;;15.40;65.40;;;;;;5028114;28;114479;-80
2023/10/12 03:10:24;;;;;;;;;;;15.40;65.50;;;;;;5027197;28;114407;-81
2023/10/12 03:12:55;;;;;;;;;;;15.40;65.40;;;;;;5027356;28;115009;-81
2023/10/12 03:15:40;;;;;;;;;;;15.40;65.60;;;;;;5026175;28;115109;-81
2023/10/12 03:18:11;;;;;;;;;;;15.40;65.70;;;;;;5012730;28;114395;-82
2023/10/12 03:20:39;;;;;;;;;;;15.40;66.00;;;;;;5027135;28;114599;-82
2023/10/12 03:23:14;;;;;;;;;;;15.30;65.90;;;;;;5026256;28;114810;-81
2023/10/12 03:25:46;;;;;;;;;;;15.30;65.90;;;;;;5026343;28;115296;-82
2023/10/12 03:28:43;;;;;;;;;;;15.30;66.00;;;;;;5026866;28;114316;-82
2023/10/12 03:31:23;;;;;;;;;;;15.30;66.00;;;;;;5026892;28;114329;-82
2023/10/12 03:33:54;;;;;;;;;;;15.30;65.90;;;;;;5025316;28;114924;-81
2023/10/12 03:36:25;;;;;;;;;;;15.30;66.20;;;;;;5024706;28;114829;-83
2023/10/12 03:47:27;;;;;;;;;;;15.30;66.50;;;;;;5026690;28;114710;-81
2023/10/12 03:50:00;;;;;;;;;;;15.20;66.50;;;;;;5027519;28;114361;-82
2023/10/12 03:52:28;;;;;;;;;;;15.20;66.50;;;;;;5027652;28;114424;-81
2023/10/12 03:55:09;;;;;;;;;;;15.20;66.80;;;;;;5026187;28;116287;-81
2023/10/12 03:57:44;;;;;;;;;;;15.20;66.80;;;;;;5026760;28;114756;-81
2023/10/12 04:05:21;;;;;;;;;;;15.20;66.90;;;;;;5026504;28;116177;-82
2023/10/12 04:13:07;;;;;;;;;;;15.20;67.10;;;;;;5025906;27;114197;-83
2023/10/12 04:16:05;;;;;;;;;;;15.20;67.20;;;;;;5026520;28;114883;-83
2023/10/12 04:18:28;;;;;;;;;;;15.10;67.10;;;;;;5026436;28;114657;-83
2023/10/12 04:20:57;;;;;;;;;;;15.10;67.10;;;;;;5027310;28;114279;-82
2023/10/12 04:23:46;;;;;;;;;;;15.10;67.00;;;;;;5026263;28;114169;-82
2023/10/12 04:28:55;;;;;;;;;;;15.20;66.80;;;;;;5026054;28;115380;-82
2023/10/12 04:36:38;;;;;;;;;;;15.20;66.80;;;;;;5025988;28;115309;-83
2023/10/12 04:39:15;;;;;;;;;;;15.20;66.70;;;;;;5024578;28;114652;-85
2023/10/12 04:47:10;;;;;;;;;;;15.10;67.10;;;;;;5026407;28;115197;-83
2023/10/12 04:57:26;;;;;;;;;;;15.10;67.30;;;;;;5030288;28;114938;-82
2023/10/12 05:10:41;;;;;;;;;;;15.00;67.00;;;;;;5057876;27;114702;-82
2023/10/12 05:13:10;;;;;;;;;;;15.10;67.30;;;;;;5045407;27;114282;-82
2023/10/12 05:15:46;;;;;;;;;;;15.00;67.10;;;;;;5057546;27;114261;-82
2023/10/12 05:18:13;;;;;;;;;;;15.00;67.10;;;;;;5050595;27;115235;-81
2023/10/12 05:20:43;;;;;;;;;;;15.10;67.10;;;;;;5027087;28;114861;-82
2023/10/12 05:23:11;;;;;;;;;;;15.10;67.00;;;;;;5029945;27;114226;-83
2023/10/12 05:26:07;;;;;;;;;;;15.10;67.00;;;;;;5029836;27;114288;-83
2023/10/12 05:28:37;;;;;;;;;;;15.10;66.90;;;;;;5015007;28;115251;-82
2023/10/12 05:36:05;;;;;;;;;;;15.20;66.70;;;;;;5030083;28;114223;-83
2023/10/12 05:38:35;;;;;;;;;;;15.30;66.70;;;;;;5029092;28;116081;-82
2023/10/12 05:41:04;;;;;;;;;;;15.30;66.70;;;;;;5011464;28;115945;-82
2023/10/12 05:43:36;;;;;;;;;;;15.40;66.50;;;;;;5028504;28;114207;-84
2023/10/12 05:46:15;;;;;;;;;;;15.50;66.30;;;;;;5028934;28;114311;-81
2023/10/12 05:48:46;;;;;;;;;;;15.60;66.10;;;;;;5027451;28;115361;-83
2023/10/12 05:51:15;;;;;;;;;;;15.70;66.00;;;;;;5011570;28;116485;-83
2023/10/12 05:53:42;;;;;;;;;;;15.70;65.70;;;;;;5028816;28;114316;-83
2023/10/12 05:56:09;;;;;;;;;;;15.80;65.70;;;;;;5027605;28;114113;-82
2023/10/12 05:58:40;;;;;;;;;;;15.80;65.50;;;;;;5027709;28;115282;-83
2023/10/12 06:01:17;;;;;;;;;;;15.90;65.50;;;;;;5028543;28;114563;-82
2023/10/12 06:04:07;;;;;;;;;;;16.00;65.30;;;;;;5027307;28;114642;-82
2023/10/12 06:06:36;;;;;;;;;;;16.10;65.10;;;;;;5028127;27;114910;-82
2023/10/12 06:09:17;;;;;;;;;;;16.20;64.80;;;;;;5026996;27;114942;-83
2023/10/12 06:11:44;;;;;;;;;;;16.20;64.60;;;;;;5037778;27;114747;-83
2023/10/12 06:14:14;;;;;;;;;;;16.20;64.40;;;;;;5043067;27;114535;-82
2023/10/12 06:16:42;;;;;;;;;;;16.30;64.30;;;;;;5027030;27;114430;-83
2023/10/12 06:21:51;;;;;;;;;;;16.30;64.40;;;;;;5030422;27;115412;-83
2023/10/12 06:24:21;;;;;;;;;;;16.60;64.30;;;;;;5026780;27;114555;-83
2023/10/12 06:26:48;;;;;;;;;;;16.70;64.20;;;;;;5061565;27;114587;-82
2023/10/12 06:29:25;;;;;;;;;;;16.90;64.00;;;;;;5033535;27;117248;-82
2023/10/12 06:31:53;;;;;;;;;;;17.00;63.90;;;;;;5028767;28;115302;-82
2023/10/12 06:34:23;;;;;;;;;;;17.30;63.50;;;;;;5025728;27;114484;-82
2023/10/12 06:36:58;;;;;;;;;;;17.30;63.40;;;;;;5027705;28;114762;-82
2023/10/12 06:46:53;;;;;;;;;;;17.80;62.10;;;;;;5027783;27;115205;-82
2023/10/12 06:49:28;;;;;;;;;;;17.90;61.70;;;;;;5025069;28;114964;-82
2023/10/12 06:52:02;;;;;;;;;;;18.00;61.70;;;;;;5026575;27;114862;-82
2023/10/12 06:54:33;;;;;;;;;;;18.10;60.70;;;;;;5025605;28;114458;-82
2023/10/12 07:02:24;;;;;;;;;;;18.30;60.10;;;;;;5032625;27;118244;-82
2023/10/12 07:04:55;;;;;;;;;;;18.40;59.70;;;;;;5017258;27;114807;-84
2023/10/12 07:07:58;;;;;;;;;;;18.50;60.10;;;;;;5039860;27;114283;-84
2023/10/12 07:10:28;;;;;;;;;;;18.50;60.20;;;;;;5047050;27;114744;-83
2023/10/12 07:12:59;;;;;;;;;;;18.60;59.80;;;;;;5038213;27;115245;-84
2023/10/12 07:15:32;;;;;;;;;;;18.50;58.80;;;;;;5001670;28;114696;-83
2023/10/12 07:18:07;;;;;;;;;;;18.30;59.40;;;;;;5043884;27;115026;-82
2023/10/12 07:23:14;;;;;;;;;;;18.30;59.60;;;;;;5044059;27;117023;-82
2023/10/12 07:25:43;;;;;;;;;;;18.40;59.10;;;;;;5046204;27;114628;-83
2023/10/12 07:28:25;;;;;;;;;;;18.50;59.40;;;;;;5046981;27;114497;-83
2023/10/12 07:31:23;;;;;;;;;;;18.50;58.90;;;;;;5043061;27;116322;-83
2023/10/12 07:39:22;;;;;;;;;;;18.80;58.80;;;;;;5049138;27;114457;-84
2023/10/12 07:41:57;;;;;;;;;;;18.80;59.30;;;;;;5046828;27;115020;-84
2023/10/12 07:44:27;;;;;;;;;;;19.00;59.20;;;;;;5031727;27;114697;-82
2023/10/12 07:46:58;;;;;;;;;;;19.30;59.00;;;;;;5048131;27;114563;-85
2023/10/12 07:49:29;;;;;;;;;;;19.30;58.60;;;;;;5064315;27;114824;-85
2023/10/12 07:52:09;;;;;;;;;;;19.40;58.90;;;;;;5047103;27;114778;-84
2023/10/12 07:57:29;;;;;;;;;;;19.70;58.70;;;;;;5063548;27;114568;-84
2023/10/12 08:21:58;;;;;;;;;;;20.60;57.30;;;;;;5026224;27;114378;-83
2023/10/12 08:29:18;;;;;;;;;;;20.60;56.10;;;;;;5041253;27;114622;-83
2023/10/12 08:31:45;;;;;;;;;;;20.70;56.60;;;;;;5032669;27;114705;-84
2023/10/12 08:37:17;;;;;;;;;;;20.90;56.70;;;;;;5026456;27;115080;-83
2023/10/12 08:44:59;;;;;;;;;;;21.30;55.90;;;;;;5053232;27;115107;-83
2023/10/12 08:52:33;;;;;;;;;;;21.40;55.00;;;;;;5045648;27;114376;-83
2023/10/12 08:55:04;;;;;;;;;;;21.50;55.00;;;;;;5006264;28;118019;-83
2023/10/12 08:57:55;;;;;;;;;;;21.60;54.70;;;;;;5024163;28;114626;-82
2023/10/12 09:00:39;;;;;;;;;;;21.70;54.20;;;;;;5025202;28;114536;-81
2023/10/12 09:05:51;;;;;;;;;;;21.80;54.90;;;;;;5025697;27;115272;-83
2023/10/12 09:10:49;;;;;;;;;;;21.90;53.80;;;;;;5024673;27;114519;-84
2023/10/12 09:13:17;;;;;;;;;;;21.90;53.50;;;;;;5040683;27;114426;-84
2023/10/12 09:15:45;;;;;;;;;;;22.00;53.20;;;;;;5026700;27;115490;-83
2023/10/12 09:18:16;;;;;;;;;;;21.90;52.60;;;;;;5041908;27;114734;-84
2023/10/12 09:23:33;;;;;;;;;;;21.90;52.70;;;;;;5013899;27;117178;-83
2023/10/12 09:31:16;;;;;;;;;;;21.90;51.20;;;;;;5040288;27;114642;-85
2023/10/12 09:36:29;;;;;;;;;;;21.80;51.40;;;;;;5029550;27;119002;-84
2023/10/12 09:39:00;;;;;;;;;;;21.80;51.00;;;;;;5042449;27;114537;-82
2023/10/12 09:41:29;;;;;;;;;;;21.90;51.00;;;;;;5057747;27;114617;-82
2023/10/12 09:43:56;;;;;;;;;;;21.90;51.20;;;;;;5013811;27;114689;-83
2023/10/12 09:46:26;;;;;;;;;;;21.90;51.00;;;;;;5029064;27;114812;-83
2023/10/12 09:49:06;;;;;;;;;;;21.90;50.00;;;;;;5028561;27;114575;-82
2023/10/12 09:51:35;;;;;;;;;;;22.00;50.70;;;;;;5030490;27;114320;-84
2023/10/12 09:54:15;;;;;;;;;;;22.00;50.70;;;;;;5030931;27;114616;-85
2023/10/12 09:56:57;;;;;;;;;;;22.10;51.00;;;;;;5009002;27;119178;-84
2023/10/12 09:59:29;;;;;;;;;;;22.20;50.90;;;;;;5063158;27;114707;-86
2023/10/12 10:02:10;;;;;;;;;;;22.20;50.80;;;;;;5007317;28;114874;-81
2023/10/12 10:04:41;;;;;;;;;;;22.20;50.40;;;;;;5038046;27;114850;-83
2023/10/12 10:07:25;;;;;;;;;;;22.20;50.70;;;;;;5027590;28;115593;-84
2023/10/12 10:09:54;;;;;;;;;;;22.30;50.80;;;;;;5046518;27;115183;-83
2023/10/12 10:12:22;;;;;;;;;;;22.30;50.60;;;;;;5028858;27;115264;-82
2023/10/12 10:14:54;;;;;;;;;;;22.30;50.80;;;;;;5059478;27;115035;-84
2023/10/12 10:17:24;;;;;;;;;;;22.30;50.70;;;;;;5019516;27;118699;-82
2023/10/12 10:20:56;;;;;;;;;;;22.20;50.60;;;;;;5023691;27;116997;-84
2023/10/12 10:23:01;;;;;;;;;;;22.10;50.70;;;;;;5040265;27;115015;-83
2023/10/12 10:25:34;;;;;;;;;;;22.10;50.80;;;;;;5050305;27;114711;-84
2023/10/12 10:28:06;;;;;;;;;;;22.10;50.40;;;;;;5051256;27;115150;-84
2023/10/12 10:30:41;;;;;;;;;;;22.10;50.40;;;;;;5062560;27;115777;-84
2023/10/12 10:33:17;;;;;;;;;;;22.10;50.20;;;;;;5052679;27;114320;-84
2023/10/12 10:35:56;;;;;;;;;;;22.10;50.20;;;;;;5045501;27;114585;-84
2023/10/12 10:38:30;;;;;;;;;;;22.10;50.30;;;;;;5026200;27;114926;-84
2023/10/12 10:41:05;;;;;;;;;;;22.20;50.30;;;;;;5040250;27;115615;-84
2023/10/12 10:43:37;;;;;;;;;;;22.20;50.40;;;;;;5024656;27;114592;-83
2023/10/12 10:46:06;;;;;;;;;;;22.20;50.50;;;;;;5026528;27;114486;-83
2023/10/12 10:48:38;;;;;;;;;;;22.20;50.40;;;;;;5057525;27;115550;-84
2023/10/12 10:51:27;;;;;;;;;;;22.20;50.40;;;;;;5052685;27;114651;-83
2023/10/12 10:53:55;;;;;;;;;;;22.20;50.00;;;;;;5041444;27;114515;-83
2023/10/12 10:56:36;;;;;;;;;;;22.20;49.90;;;;;;5057578;27;114509;-84
2023/10/12 10:59:07;;;;;;;;;;;22.10;49.90;;;;;;5026411;27;115435;-84
2023/10/12 11:01:35;;;;;;;;;;;22.00;50.20;;;;;;5057635;27;114756;-83
2023/10/12 11:04:07;;;;;;;;;;;22.00;50.30;;;;;;5041023;27;114587;-84
2023/10/12 11:06:36;;;;;;;;;;;22.00;50.20;;;;;;5037873;27;115005;-85
2023/10/12 11:11:38;;;;;;;;;;;21.90;50.30;;;;;;5038861;27;114538;-84
2023/10/12 11:14:08;;;;;;;;;;;21.90;50.50;;;;;;5038329;27;114872;-84
2023/10/12 11:16:36;;;;;;;;;;;21.90;50.50;;;;;;5026339;27;114446;-81
2023/10/12 11:19:04;;;;;;;;;;;21.90;50.50;;;;;;5033457;27;114951;-82
2023/10/12 11:21:31;;;;;;;;;;;22.00;50.60;;;;;;5026390;27;117218;-81
2023/10/12 11:23:59;;;;;;;;;;;22.00;50.40;;;;;;5026796;27;114438;-82
2023/10/12 11:26:26;;;;;;;;;;;22.00;50.50;;;;;;5048836;27;114763;-82
2023/10/12 11:29:04;;;;;;;;;;;22.00;50.80;;;;;;5049912;27;116932;-83
2023/10/12 11:31:31;;;;;;;;;;;22.10;50.70;;;;;;5048348;27;114681;-83
2023/10/12 11:33:59;;;;;;;;;;;22.00;50.30;;;;;;5053430;27;114218;-83
2023/10/12 11:36:26;;;;;;;;;;;21.90;50.20;;;;;;5026797;27;114683;-82
2023/10/12 11:38:57;;;;;;;;;;;21.80;50.20;;;;;;5043952;27;115535;-84
2023/10/12 11:41:25;;;;;;;;;;;21.70;50.50;;;;;;5043116;27;116581;-82
2023/10/12 11:43:57;;;;;;;;;;;21.70;50.50;;;;;;5038353;27;114937;-83
2023/10/12 11:46:25;;;;;;;;;;;21.70;50.40;;;;;;5030200;28;114243;-83
2023/10/12 11:48:59;;;;;;;;;;;21.60;50.60;;;;;;5026622;28;114901;-83
2023/10/12 11:51:26;;;;;;;;;;;21.60;50.50;;;;;;5026221;28;114896;-84
2023/10/12 11:53:53;;;;;;;;;;;21.60;50.50;;;;;;5009201;28;114488;-82
2023/10/12 11:56:24;;;;;;;;;;;21.50;50.70;;;;;;5026017;27;114233;-83
2023/10/12 11:58:55;;;;;;;;;;;21.50;50.80;;;;;;5041768;27;117741;-83
2023/10/12 12:01:22;;;;;;;;;;;21.50;50.80;;;;;;5024568;28;114642;-82
2023/10/12 12:03:54;;;;;;;;;;;21.50;51.00;;;;;;5033575;27;114676;-84
2023/10/12 12:06:21;;;;;;;;;;;21.40;51.00;;;;;;5032765;27;114379;-83
2023/10/12 12:08:49;;;;;;;;;;;21.40;51.10;;;;;;5027016;27;115222;-84
2023/10/12 12:11:19;;;;;;;;;;;21.30;51.10;;;;;;5046127;27;114755;-80
2023/10/12 12:13:52;;;;;;;;;;;21.30;51.00;;;;;;5045483;27;114503;-84
2023/10/12 12:16:22;;;;;;;;;;;21.20;51.30;;;;;;5028921;27;114514;-81
2023/10/12 12:18:51;;;;;;;;;;;21.20;51.30;;;;;;5043495;27;116141;-82
2023/10/12 12:21:29;;;;;;;;;;;21.20;51.40;;;;;;5040356;27;114525;-83
2023/10/12 12:23:56;;;;;;;;;;;21.20;51.30;;;;;;5044725;27;114529;-83
2023/10/12 12:26:24;;;;;;;;;;;21.10;51.40;;;;;;5042220;27;114701;-83
2023/10/12 12:29:03;;;;;;;;;;;21.10;51.50;;;;;;5023401;28;114938;-84
2023/10/12 12:31:33;;;;;;;;;;;21.00;51.50;;;;;;5023219;28;116131;-83
2023/10/12 12:34:01;;;;;;;;;;;20.90;51.60;;;;;;5029906;27;114672;-81
2023/10/12 12:36:30;;;;;;;;;;;20.90;51.70;;;;;;5025618;28;114389;-82
2023/10/12 12:38:57;;;;;;;;;;;20.80;51.70;;;;;;5023095;28;117957;-84
2023/10/12 12:41:25;;;;;;;;;;;20.80;51.80;;;;;;5023194;28;114667;-83
2023/10/12 12:43:52;;;;;;;;;;;20.80;51.80;;;;;;5028623;27;115047;-83
2023/10/12 12:46:19;;;;;;;;;;;20.80;51.90;;;;;;5024271;28;114655;-82
2023/10/12 12:48:48;;;;;;;;;;;20.80;51.90;;;;;;5023802;28;116107;-83
2023/10/12 12:51:16;;;;;;;;;;;20.80;51.90;;;;;;5024325;28;114638;-84
2023/10/12 12:53:46;;;;;;;;;;;20.80;52.00;;;;;;5024124;28;114608;-83
2023/10/12 12:56:17;;;;;;;;;;;20.80;52.20;;;;;;5024967;27;115942;-82
2023/10/12 12:58:46;;;;;;;;;;;20.80;52.20;;;;;;5023719;27;114899;-84
2023/10/12 13:01:14;;;;;;;;;;;20.90;52.30;;;;;;5024080;28;114828;-84
2023/10/12 13:03:41;;;;;;;;;;;20.90;52.30;;;;;;5011399;27;118804;-84
2023/10/12 13:06:09;;;;;;;;;;;20.90;52.30;;;;;;5026678;27;114534;-84
2023/10/12 13:08:36;;;;;;;;;;;20.90;52.30;;;;;;5038687;27;114886;-84
2023/10/12 13:11:09;;;;;;;;;;;20.90;52.40;;;;;;5026255;28;114744;-84
2023/10/12 13:13:39;;;;;;;;;;;20.90;52.40;;;;;;5028625;28;114555;-82
2023/10/12 13:16:11;;;;;;;;;;;20.80;52.40;;;;;;5027688;27;114727;-82
2023/10/12 13:18:51;;;;;;;;;;;20.80;52.50;;;;;;5025371;28;118057;-82
2023/10/12 13:21:22;;;;;;;;;;;20.80;52.50;;;;;;5057852;27;114829;-82
2023/10/12 13:23:49;;;;;;;;;;;20.80;52.60;;;;;;5028044;28;114383;-84
2023/10/12 13:26:17;;;;;;;;;;;20.80;52.60;;;;;;5029215;27;114417;-83
2023/10/12 13:28:45;;;;;;;;;;;20.80;52.60;;;;;;5027951;27;114897;-82
2023/10/12 13:31:12;;;;;;;;;;;20.80;52.60;;;;;;5032445;27;114714;-83
2023/10/12 13:33:41;;;;;;;;;;;20.80;52.70;;;;;;5054836;27;114630;-83
2023/10/12 13:36:09;;;;;;;;;;;20.70;52.70;;;;;;5029144;28;114328;-83
2023/10/12 13:38:37;;;;;;;;;;;20.80;52.90;;;;;;5033510;27;115145;-82
2023/10/12 13:41:10;;;;;;;;;;;20.70;52.90;;;;;;5027343;28;114735;-84
2023/10/12 13:43:39;;;;;;;;;;;20.70;52.90;;;;;;5032766;27;115285;-84
2023/10/12 13:46:10;;;;;;;;;;;20.70;52.90;;;;;;5030210;27;114490;-82
2023/10/12 13:48:38;;;;;;;;;;;20.70;53.00;;;;;;5045480;27;115185;-82
2023/10/12 13:51:08;;;;;;;;;;;20.60;53.10;;;;;;5027317;28;114809;-83
2023/10/12 13:53:39;;;;;;;;;;;20.60;53.10;;;;;;5033295;27;115580;-83
2023/10/12 13:56:08;;;;;;;;;;;20.60;53.20;;;;;;5055951;27;114723;-82
2023/10/12 13:58:36;;;;;;;;;;;20.50;53.20;;;;;;5057878;27;114588;-80
2023/10/12 14:01:04;;;;;;;;;;;20.40;53.30;;;;;;5038772;27;118990;-83
2023/10/12 14:03:38;;;;;;;;;;;20.40;53.40;;;;;;5056456;27;114494;-83
2023/10/12 14:06:06;;;;;;;;;;;20.30;53.50;;;;;;5044610;27;114839;-83
2023/10/12 14:08:35;;;;;;;;;;;20.30;53.60;;;;;;5052811;27;115199;-82
2023/10/12 14:11:06;;;;;;;;;;;20.30;53.70;;;;;;5034457;27;114833;-83
2023/10/12 14:13:33;;;;;;;;;;;20.20;53.90;;;;;;5042353;27;114428;-82
2023/10/12 14:16:01;;;;;;;;;;;20.10;54.00;;;;;;5047145;27;114496;-82
2023/10/12 14:18:28;;;;;;;;;;;20.10;54.20;;;;;;5043528;27;114998;-84
2023/10/12 14:20:55;;;;;;;;;;;20.00;54.30;;;;;;5024960;27;114721;-84
2023/10/12 14:23:26;;;;;;;;;;;19.90;54.50;;;;;;5025021;28;114705;-82
2023/10/12 14:25:54;;;;;;;;;;;19.90;54.60;;;;;;5026199;27;114356;-83
2023/10/12 14:28:21;;;;;;;;;;;19.80;54.80;;;;;;5025895;27;114943;-83
2023/10/12 14:30:50;;;;;;;;;;;19.80;54.90;;;;;;5025561;27;114596;-83
2023/10/12 14:33:19;;;;;;;;;;;19.70;55.00;;;;;;5036779;27;114471;-84
2023/10/12 14:35:46;;;;;;;;;;;19.70;55.20;;;;;;5025394;27;114784;-83
2023/10/12 14:38:19;;;;;;;;;;;19.60;55.40;;;;;;5027607;27;114810;-83
2023/10/12 14:40:47;;;;;;;;;;;19.70;55.60;;;;;;5057064;27;115270;-79
2023/10/12 14:43:14;;;;;;;;;;;19.50;55.70;;;;;;5041197;27;114381;-82
2023/10/12 14:45:49;;;;;;;;;;;19.50;55.80;;;;;;5027421;27;114657;-81
2023/10/12 14:48:17;;;;;;;;;;;19.40;56.00;;;;;;5033476;27;114831;-82
2023/10/12 14:50:49;;;;;;;;;;;19.30;56.20;;;;;;5045301;27;114743;-82
2023/10/12 14:53:16;;;;;;;;;;;19.30;56.30;;;;;;5032474;27;114609;-81
2023/10/12 14:55:43;;;;;;;;;;;19.30;56.50;;;;;;5034804;27;114514;-82
2023/10/12 14:58:13;;;;;;;;;;;19.20;56.70;;;;;;5025148;28;114904;-83
2023/10/12 15:00:43;;;;;;;;;;;19.10;56.80;;;;;;5023910;27;114596;-83
2023/10/12 15:03:11;;;;;;;;;;;19.10;57.00;;;;;;5034606;27;114863;-81
2023/10/12 15:05:38;;;;;;;;;;;19.00;57.10;;;;;;5030106;27;114517;-82
2023/10/12 15:08:07;;;;;;;;;;;19.00;57.30;;;;;;5029232;27;114903;-81
2023/10/12 15:10:35;;;;;;;;;;;18.90;57.60;;;;;;5028468;27;117448;-82
2023/10/12 15:13:07;;;;;;;;;;;18.90;57.80;;;;;;5047262;27;114437;-82
2023/10/12 15:15:34;;;;;;;;;;;18.80;57.90;;;;;;5045857;27;114507;-83
2023/10/12 15:18:30;;;;;;;;;;;18.80;58.10;;;;;;5045636;27;115440;-83
2023/10/12 15:20:57;;;;;;;;;;;18.80;58.20;;;;;;5011462;27;119131;-82
2023/10/12 15:23:43;;;;;;;;;;;18.80;58.40;;;;;;5046084;27;114288;-82
2023/10/12 15:26:13;;;;;;;;;;;18.70;58.50;;;;;;5041345;27;114685;-83
2023/10/12 15:28:43;;;;;;;;;;;18.60;58.60;;;;;;5023980;28;115024;-82
2023/10/12 15:31:21;;;;;;;;;;;18.60;58.90;;;;;;5025880;27;115273;-82
2023/10/12 15:33:50;;;;;;;;;;;18.50;59.00;;;;;;5043473;27;114294;-81
2023/10/12 15:36:17;;;;;;;;;;;18.50;59.10;;;;;;5045506;27;114678;-81
2023/10/12 15:38:45;;;;;;;;;;;18.50;59.20;;;;;;5045359;27;115541;-82
2023/10/12 15:41:12;;;;;;;;;;;18.40;59.50;;;;;;5044439;27;117116;-82
2023/10/12 15:43:39;;;;;;;;;;;18.40;59.50;;;;;;5046354;27;114460;-81
2023/10/12 15:46:11;;;;;;;;;;;18.30;59.70;;;;;;5046739;27;114362;-81
2023/10/12 15:48:40;;;;;;;;;;;18.30;59.90;;;;;;5039968;27;115082;-81
2023/10/12 15:51:19;;;;;;;;;;;18.20;59.90;;;;;;5025405;28;114675;-80
2023/10/12 15:53:48;;;;;;;;;;;18.20;60.20;;;;;;5024014;28;114449;-82
2023/10/12 15:56:16;;;;;;;;;;;18.10;60.30;;;;;;5008144;28;114437;-82
2023/10/12 15:58:45;;;;;;;;;;;18.10;60.40;;;;;;5007013;28;116591;-83
2023/10/12 16:01:14;;;;;;;;;;;18.10;60.50;;;;;;5023674;28;115098;-83
2023/10/12 16:03:42;;;;;;;;;;;18.10;60.70;;;;;;5044377;27;114553;-82
2023/10/12 16:06:13;;;;;;;;;;;18.00;60.70;;;;;;5046237;27;114553;-83
2023/10/12 16:08:40;;;;;;;;;;;18.00;60.70;;;;;;5044986;27;117387;-83
2023/10/12 16:11:08;;;;;;;;;;;17.90;60.90;;;;;;5033609;27;114634;-82
2023/10/12 16:13:38;;;;;;;;;;;18.00;61.00;;;;;;5031493;27;114327;-81
2023/10/12 16:16:11;;;;;;;;;;;17.90;61.20;;;;;;5028465;27;114478;-82
2023/10/12 16:18:42;;;;;;;;;;;17.90;61.20;;;;;;5022672;28;115432;-82
2023/10/12 16:21:10;;;;;;;;;;;17.90;61.40;;;;;;5029959;27;114698;-83
2023/10/12 16:23:37;;;;;;;;;;;17.80;61.60;;;;;;5034425;27;114306;-84
2023/10/12 16:26:08;;;;;;;;;;;17.90;61.50;;;;;;5027279;27;114569;-82
2023/10/12 16:28:35;;;;;;;;;;;17.80;61.70;;;;;;5027268;27;115129;-82
2023/10/12 16:31:03;;;;;;;;;;;17.80;61.80;;;;;;5040670;27;115408;-83
2023/10/12 16:33:35;;;;;;;;;;;17.80;61.80;;;;;;5036344;27;114682;-82
2023/10/12 16:36:06;;;;;;;;;;;17.80;61.90;;;;;;5033828;27;116561;-82
2023/10/12 16:38:33;;;;;;;;;;;17.80;61.80;;;;;;5028300;27;115555;-83
2023/10/12 16:41:02;;;;;;;;;;;17.80;62.00;;;;;;5040136;27;114731;-82
2023/10/12 16:43:33;;;;;;;;;;;17.70;62.00;;;;;;5035620;27;114338;-82
2023/10/12 16:46:00;;;;;;;;;;;17.80;62.10;;;;;;5028520;27;114454;-83
2023/10/12 16:48:30;;;;;;;;;;;17.70;62.00;;;;;;5034896;27;114994;-82
2023/10/12 16:50:57;;;;;;;;;;;17.70;62.10;;;;;;5028636;27;114517;-80
2023/10/12 16:53:28;;;;;;;;;;;17.60;62.40;;;;;;5026443;27;114434;-82
2023/10/12 16:56:02;;;;;;;;;;;17.60;62.50;;;;;;5037889;27;114621;-82